Terminal Aerodrome Forecast
Issued by NWS

Home | Current Version | Previous Version | Graphics & Text | Print | Product List | Glossary On
Versions: 1 2 3 4 5 6 7 8 9 10 11 12 13 14 15 16 17 18 19 20 21
723
FTUS42 KMHX 021622 AAB
TAFPGV
TAF AMD
KPGV 021622Z 0216/0312 23010G17KT P6SM BKN040
      TEMPO 0216/0217 BKN025
     FM021800 22011G18KT P6SM VCTS BKN040CB
     FM022300 19011KT P6SM BKN040
     FM030600 20008KT 6SM -SHRA SCT025 OVC040
      AMD LTD TO CLD VIS AND WIND=

USA.gov is the U.S. government's official web portal to all federal, state and local government web resources and services.